Time;durP1;ratioP1;P1;durP2;ratioP2;P2;SDS_P1;SDS_P2;PMS_P1;PMS_P2;Temp;Humidity;BMP_temperature;BMP_pressure;BME280_temperature;BME280_humidity;BME280_pressure;Samples;Min_cycle;Max_cycle;Signal;HPM_P1;HPM_P2
2022/02/07 06:28:40;;;;;;;;;5.00;2.50;;;;;4.40;71.13;102378.91;5068890;27;49777;-68
2022/02/07 06:31:06;;;;;;;;;6.00;6.00;;;;;4.51;71.54;102380.56;5067133;28;49969;-67
2022/02/07 06:33:31;;;;;;;;;5.00;4.00;;;;;4.53;71.37;102352.06;5067303;27;49676;-70
2022/02/07 06:35:58;;;;;;;;;7.00;4.00;;;;;4.71;70.99;102362.88;5067113;28;50066;-68
2022/02/07 06:38:23;;;;;;;;;3.50;3.50;;;;;4.87;70.58;102373.56;5067599;28;49859;-68
2022/02/07 06:40:49;;;;;;;;;4.75;3.50;;;;;5.09;70.50;102402.84;5067250;28;49590;-68
2022/02/07 06:43:14;;;;;;;;;4.75;4.00;;;;;5.19;70.27;102404.38;5067452;28;49732;-68
2022/02/07 06:45:39;;;;;;;;;4.75;4.00;;;;;5.20;70.08;102384.47;5066415;28;54630;-67
2022/02/07 06:48:05;;;;;;;;;8.00;4.25;;;;;5.01;69.79;102341.56;5060310;28;49799;-68
2022/02/07 06:50:30;;;;;;;;;5.00;4.00;;;;;5.23;69.40;102371.69;5066790;28;49758;-67
2022/02/07 06:52:56;;;;;;;;;5.75;5.00;;;;;5.46;69.44;102411.47;5067188;28;50398;-68
2022/02/07 06:55:21;;;;;;;;;7.50;5.75;;;;;5.51;69.04;102416.13;5066855;28;49723;-66
2022/02/07 06:57:46;;;;;;;;;4.00;4.00;;;;;5.56;68.47;102415.59;5066877;28;49790;-65
2022/02/07 07:00:13;;;;;;;;;7.50;6.50;;;;;5.59;68.80;102414.91;5066669;28;49708;-65
2022/02/07 07:02:39;;;;;;;;;6.75;3.50;;;;;5.61;68.12;102419.44;5066939;28;49836;-66
2022/02/07 07:05:12;;;;;;;;;2.75;1.75;;;;;5.54;68.13;102393.78;5066304;28;49706;-65
2022/02/07 07:07:38;;;;;;;;;2.00;1.50;;;;;5.73;67.96;102435.88;5066668;28;49704;-68
2022/02/07 07:10:05;;;;;;;;;2.00;2.00;;;;;5.79;67.90;102448.44;5066587;28;49627;-65
2022/02/07 07:12:30;;;;;;;;;6.75;6.75;;;;;5.80;67.38;102444.13;5067146;28;49952;-66
2022/02/07 07:15:47;;;;;;;;;4.25;3.25;;;;;5.77;67.58;102431.75;5066276;28;49885;-65
2022/02/07 07:17:42;;;;;;;;;4.50;4.50;;;;;5.85;67.79;102443.59;5061406;28;49945;-66
2022/02/07 07:20:11;;;;;;;;;2.00;2.00;;;;;5.88;67.40;102453.31;5066431;27;50205;-65
2022/02/07 07:22:37;;;;;;;;;5.75;5.00;;;;;5.92;67.55;102458.91;5066391;28;50057;-65
2022/02/07 07:25:05;;;;;;;;;6.50;5.00;;;;;5.93;67.16;102460.69;5066087;28;51317;-65
2022/02/07 07:27:36;;;;;;;;;6.00;5.00;;;;;5.97;67.12;102473.13;5077232;27;49847;-65
2022/02/07 07:30:03;;;;;;;;;5.75;2.50;;;;;5.92;66.85;102460.59;5068274;27;49833;-64
2022/02/07 07:32:31;;;;;;;;;1.50;1.25;;;;;5.95;66.95;102466.00;5086915;27;49725;-63
2022/02/07 07:34:56;;;;;;;;;7.50;5.50;;;;;6.02;66.89;102479.56;5068210;27;51963;-65
2022/02/07 07:37:22;;;;;;;;;6.75;5.00;;;;;5.99;66.84;102481.06;5086672;27;49700;-65
2022/02/07 07:39:48;;;;;;;;;6.50;4.50;;;;;6.09;66.74;102485.19;5074171;27;49617;-66
2022/02/07 07:42:13;;;;;;;;;2.00;2.00;;;;;6.03;66.95;102486.56;5073012;27;50005;-61
2022/02/07 07:44:39;;;;;;;;;6.75;5.75;;;;;6.15;65.95;102509.94;5054360;28;50366;-62
2022/02/07 07:47:12;;;;;;;;;6.50;5.00;;;;;6.14;66.67;102518.56;5072764;28;49648;-66
2022/02/07 07:49:45;;;;;;;;;10.50;9.25;;;;;6.11;66.33;102507.06;5070311;27;49843;-68
2022/02/07 07:52:18;;;;;;;;;6.50;4.00;;;;;6.19;66.46;102509.38;5084561;28;49548;-67
2022/02/07 07:54:57;;;;;;;;;8.50;8.50;;;;;5.89;66.17;102455.16;5088132;28;50067;-66
2022/02/07 08:02:53;;;;;;;;;9.00;5.50;;;;;6.47;65.64;102552.94;5084374;28;49368;-66
2022/02/07 08:05:45;;;;;;;;;3.00;3.00;;;;;6.48;65.67;102557.34;5090200;28;49952;-65
2022/02/07 08:08:17;;;;;;;;;8.50;6.00;;;;;6.41;65.25;102550.81;5085271;28;51261;-65
2022/02/07 08:11:01;;;;;;;;;14.00;10.00;;;;;6.21;66.01;102527.72;5089271;28;49286;-64
2022/02/07 08:13:29;;;;;;;;;10.00;8.25;;;;;6.55;65.61;102580.41;5078832;28;49641;-67
2022/02/07 08:15:55;;;;;;;;;8.75;6.50;;;;;6.57;65.37;102584.94;5078039;28;50522;-66
2022/02/07 08:18:20;;;;;;;;;11.25;6.75;;;;;6.28;65.51;102525.63;5079564;28;49897;-71
2022/02/07 08:20:46;;;;;;;;;7.25;5.50;;;;;6.39;65.63;102544.59;5084758;28;49319;-73
2022/02/07 08:23:11;;;;;;;;;5.75;5.50;;;;;6.35;65.19;102536.44;5069279;28;50154;-70
2022/02/07 08:25:37;;;;;;;;;7.75;2.75;;;;;6.37;65.29;102547.88;5090377;28;49843;-71
2022/02/07 08:28:03;;;;;;;;;6.75;6.75;;;;;6.38;64.55;102557.53;5089689;28;49594;-71
2022/02/07 08:30:28;;;;;;;;;11.00;11.00;;;;;6.72;65.47;102613.75;5090376;28;49530;-71
2022/02/07 08:32:54;;;;;;;;;7.00;7.00;;;;;6.36;65.02;102540.84;5089212;28;49465;-71
2022/02/07 08:35:20;;;;;;;;;11.75;9.25;;;;;6.74;64.97;102609.50;5074093;28;49961;-69
2022/02/07 08:37:46;;;;;;;;;9.50;8.50;;;;;6.70;65.01;102602.31;5072025;27;49829;-64
2022/02/07 08:40:12;;;;;;;;;10.00;10.00;;;;;6.66;64.92;102589.88;5073726;27;49853;-65
2022/02/07 08:42:37;;;;;;;;;9.75;9.75;;;;;6.86;65.21;102623.38;5075901;27;49774;-65
2022/02/07 08:45:04;;;;;;;;;10.00;8.25;;;;;6.92;64.96;102629.78;5069744;28;50964;-66
2022/02/07 08:47:29;;;;;;;;;8.75;6.00;;;;;6.95;64.42;102623.09;5078320;28;49621;-64
2022/02/07 08:49:54;;;;;;;;;9.00;9.00;;;;;7.05;64.42;102629.81;5081440;27;50701;-66
2022/02/07 08:52:20;;;;;;;;;15.50;10.00;;;;;7.08;64.86;102630.00;5058120;28;49995;-67
2022/02/07 08:54:46;;;;;;;;;10.75;8.50;;;;;6.76;63.93;102587.06;5078462;28;49858;-65
2022/02/07 08:57:26;;;;;;;;;12.75;9.50;;;;;7.00;64.08;102620.75;5088703;27;49304;-66
2022/02/07 09:02:35;;;;;;;;;10.50;10.50;;;;;7.23;64.54;102648.34;5085131;27;49593;-67
2022/02/07 09:07:37;;;;;;;;;13.75;12.50;;;;;7.29;63.82;102667.94;5077364;28;50010;-65
2022/02/07 09:10:04;;;;;;;;;13.75;7.00;;;;;7.39;63.73;102679.88;5053488;28;50112;-65
2022/02/07 09:12:29;;;;;;;;;9.50;7.00;;;;;7.44;63.94;102683.72;5077008;28;49778;-71
2022/02/07 09:15:17;;;;;;;;;10.00;7.50;;;;;7.33;63.96;102669.94;5074597;28;49913;-68
2022/02/07 09:17:42;;;;;;;;;14.00;11.00;;;;;7.28;64.01;102655.69;5073925;27;49771;-67
2022/02/07 09:20:08;;;;;;;;;6.75;5.25;;;;;7.63;64.15;102722.38;5071149;28;49671;-67
2022/02/07 09:22:33;;;;;;;;;11.00;9.25;;;;;7.13;63.83;102624.25;5070673;28;49969;-68
2022/02/07 09:24:59;;;;;;;;;10.75;10.25;;;;;7.72;63.82;102722.94;5071053;28;49657;-66
2022/02/07 09:27:24;;;;;;;;;13.50;7.75;;;;;7.79;63.60;102735.59;5070508;28;52972;-67
2022/02/07 09:29:49;;;;;;;;;5.75;4.00;;;;;7.65;63.24;102695.53;5071164;28;49770;-67
2022/02/07 09:32:15;;;;;;;;;11.25;6.25;;;;;7.67;63.53;102700.84;5070976;27;49606;-66
2022/02/07 09:34:40;;;;;;;;;10.50;8.50;;;;;7.97;62.70;102748.94;5070408;28;49798;-66
2022/02/07 09:37:06;;;;;;;;;6.75;5.50;;;;;7.96;63.32;102739.28;5071196;28;49666;-66
2022/02/07 09:39:31;;;;;;;;;12.50;8.00;;;;;7.93;63.12;102734.78;5071057;28;49768;-66
2022/02/07 09:41:58;;;;;;;;;6.25;4.50;;;;;8.10;62.91;102764.59;5071069;28;49933;-66
2022/02/07 09:44:24;;;;;;;;;11.00;9.00;;;;;8.13;63.41;102775.25;5070624;28;49664;-66
2022/02/07 09:46:52;;;;;;;;;8.00;5.00;;;;;7.97;61.80;102754.16;5070685;28;49738;-66
2022/02/07 09:49:18;;;;;;;;;5.75;5.75;;;;;8.25;61.72;102796.03;5071004;28;49861;-66
2022/02/07 09:51:45;;;;;;;;;5.00;3.00;;;;;8.18;61.70;102778.16;5070983;28;49811;-67
2022/02/07 09:54:15;;;;;;;;;6.75;6.00;;;;;8.31;61.70;102799.97;5070522;28;50688;-66
2022/02/07 09:56:40;;;;;;;;;5.75;3.25;;;;;8.32;61.74;102783.44;5070832;28;49735;-66
2022/02/07 09:59:08;;;;;;;;;5.75;4.25;;;;;8.46;61.57;102810.50;5070909;28;49699;-67
2022/02/07 10:01:36;;;;;;;;;6.00;4.00;;;;;8.39;61.05;102782.13;5070077;28;49868;-66
2022/02/07 10:04:14;;;;;;;;;3.00;3.00;;;;;8.52;60.70;102804.75;5070253;27;51437;-67
2022/02/07 10:09:38;;;;;;;;;7.00;5.00;;;;;8.65;61.30;102830.84;5070642;28;49722;-67
2022/02/07 10:12:25;;;;;;;;;2.75;2.00;;;;;8.70;61.63;102829.44;5064668;28;49807;-67
2022/02/07 10:41:58;;;;;;;;;3.75;3.00;;;;;8.79;58.82;102784.59;5070186;28;49731;-66
2022/02/07 10:44:37;;;;;;;;;4.25;3.00;;;;;9.10;59.57;102832.75;5070645;28;49805;-66
2022/02/07 10:47:11;;;;;;;;;2.00;1.50;;;;;9.14;57.94;102828.59;5069771;28;49754;-66
2022/02/07 10:49:36;;;;;;;;;6.00;3.00;;;;;9.22;57.99;102839.53;5070108;28;49699;-66
2022/02/07 10:52:03;;;;;;;;;4.00;2.75;;;;;9.18;58.41;102835.84;5070114;27;49741;-66
2022/02/07 10:54:29;;;;;;;;;7.50;6.25;;;;;9.32;59.00;102842.78;5070717;28;49763;-66
2022/02/07 10:56:55;;;;;;;;;3.50;3.50;;;;;9.42;59.01;102838.97;5070128;28;50439;-66
2022/02/07 10:59:22;;;;;;;;;7.25;5.50;;;;;9.39;57.37;102825.69;5070094;28;49800;-66
2022/02/07 11:04:23;;;;;;;;;1.50;1.50;;;;;9.55;57.46;102827.47;5070411;28;49741;-66
2022/02/07 11:06:52;;;;;;;;;4.00;3.00;;;;;9.57;56.23;102836.34;5070079;28;50808;-67
2022/02/07 11:09:32;;;;;;;;;4.50;3.00;;;;;9.49;56.03;102821.91;5051734;28;49755;-68
2022/02/07 11:13:09;;;;;;;;;4.50;1.25;;;;;9.53;55.55;102840.50;5053884;28;49792;-67
2022/02/07 11:17:28;;;;;;;;;3.25;2.50;;;;;9.57;55.14;102836.34;5073005;28;49846;-66
2022/02/07 11:27:51;;;;;;;;;6.25;2.75;;;;;9.52;54.89;102838.69;5073014;28;50415;-66
2022/02/07 11:30:19;;;;;;;;;1.50;1.50;;;;;9.52;55.02;102841.31;5054756;28;49831;-66
2022/02/07 11:32:52;;;;;;;;;4.00;4.00;;;;;9.46;54.58;102846.22;5072929;28;49682;-66
2022/02/07 11:35:27;;;;;;;;;6.00;3.00;;;;;9.34;54.50;102806.16;5073510;28;50063;-67
2022/02/07 11:38:13;;;;;;;;;4.25;3.75;;;;;9.29;55.35;102805.00;5072769;28;51511;-67
2022/02/07 11:40:55;;;;;;;;;6.50;2.00;;;;;9.28;53.05;102822.47;5072906;27;49617;-67
2022/02/07 11:43:39;;;;;;;;;3.75;1.00;;;;;9.52;54.59;102859.66;5072945;27;50112;-67
2022/02/07 11:46:10;;;;;;;;;3.00;1.75;;;;;9.54;54.56;102858.03;5073241;27;49998;-67
2022/02/07 11:48:51;;;;;;;;;6.75;1.00;;;;;9.41;54.06;102824.97;5091622;27;52242;-68
2022/02/07 11:51:19;;;;;;;;;6.25;4.00;;;;;9.57;54.87;102846.84;5066889;28;49475;-68
2022/02/07 11:53:50;;;;;;;;;3.25;2.25;;;;;9.73;53.95;102865.25;5088708;27;49650;-69
2022/02/07 11:56:28;;;;;;;;;2.25;2.00;;;;;9.78;53.67;102868.16;5081297;28;49889;-67
2022/02/07 11:59:09;;;;;;;;;3.00;2.00;;;;;9.77;54.41;102859.38;5077324;28;49654;-66
2022/02/07 12:02:01;;;;;;;;;2.75;1.50;;;;;9.74;53.92;102860.09;5085580;27;49876;-67
2022/02/07 12:04:34;;;;;;;;;5.00;4.00;;;;;9.72;52.95;102843.38;5086832;28;49600;-68
2022/02/07 12:07:05;;;;;;;;;10.50;3.00;;;;;9.77;53.42;102850.63;5086099;28;49601;-67
2022/02/07 12:09:30;;;;;;;;;7.25;6.00;;;;;9.86;54.02;102854.66;5085716;28;50482;-67
2022/02/07 12:11:56;;;;;;;;;5.00;5.00;;;;;9.89;53.21;102851.31;5089033;27;49725;-68
2022/02/07 12:14:32;;;;;;;;;4.00;4.00;;;;;9.91;53.79;102854.91;5085538;28;49812;-68
2022/02/07 12:16:58;;;;;;;;;8.50;7.00;;;;;9.94;53.80;102849.81;5076295;27;49751;-66
2022/02/07 12:19:40;;;;;;;;;4.00;4.00;;;;;10.00;53.16;102848.47;5081406;28;49547;-67
2022/02/07 12:22:17;;;;;;;;;8.00;4.25;;;;;10.04;52.86;102860.06;5079414;27;49599;-67
2022/02/07 12:24:57;;;;;;;;;6.25;2.50;;;;;9.94;52.92;102832.41;5071858;27;49811;-68
2022/02/07 12:27:23;;;;;;;;;7.75;3.00;;;;;10.07;53.95;102843.56;5074141;27;50110;-65
2022/02/07 12:32:33;;;;;;;;;2.50;2.50;;;;;10.21;52.34;102830.38;5074651;27;50137;-65
2022/02/07 12:34:58;;;;;;;;;2.75;2.00;;;;;10.36;53.70;102845.22;5077802;27;49864;-64
2022/02/07 12:37:24;;;;;;;;;4.50;2.75;;;;;10.33;52.35;102817.09;5071265;28;49944;-65
2022/02/07 12:39:50;;;;;;;;;4.00;3.00;;;;;10.45;52.52;102833.50;5072054;28;49772;-64
2022/02/07 12:42:16;;;;;;;;;5.50;4.25;;;;;10.58;52.80;102837.66;5072110;28;49727;-63
2022/02/07 12:44:41;;;;;;;;;5.00;2.75;;;;;10.39;51.58;102809.50;5072073;28;49885;-64
2022/02/07 12:47:09;;;;;;;;;2.50;2.50;;;;;10.64;51.71;102848.53;5071920;27;49604;-64
2022/02/07 12:49:37;;;;;;;;;1.50;1.50;;;;;10.74;52.17;102842.03;5071644;28;49791;-63
2022/02/07 12:52:03;;;;;;;;;8.00;4.00;;;;;10.87;51.92;102849.72;5071640;28;49872;-64
2022/02/07 12:54:28;;;;;;;;;2.00;2.00;;;;;10.95;51.61;102839.63;5071709;27;49961;-65
2022/02/07 12:56:59;;;;;;;;;5.25;5.25;;;;;11.03;52.03;102839.22;5072114;28;49994;-64
2022/02/07 12:59:25;;;;;;;;;3.00;1.50;;;;;10.97;51.68;102822.22;5071805;28;50321;-65
2022/02/07 13:01:54;;;;;;;;;4.25;2.00;;;;;10.60;51.58;102745.00;5071425;28;49767;-65
2022/02/07 13:04:22;;;;;;;;;2.25;1.00;;;;;11.09;50.76;102828.09;5071294;27;50037;-64
2022/02/07 13:06:48;;;;;;;;;3.00;2.00;;;;;11.02;51.23;102797.97;5070996;28;49896;-64
2022/02/07 13:09:33;;;;;;;;;3.25;2.25;;;;;11.06;50.23;102822.69;5078428;27;50084;-63
2022/02/07 13:12:13;;;;;;;;;5.25;2.75;;;;;11.21;49.12;102844.53;5074754;27;49575;-65
2022/02/07 13:14:48;;;;;;;;;1.75;1.00;;;;;11.14;48.92;102848.53;5079605;27;49859;-65
2022/02/07 13:17:14;;;;;;;;;5.50;2.75;;;;;11.10;49.89;102837.81;5072371;27;50032;-69
2022/02/07 13:19:47;;;;;;;;;3.75;3.75;;;;;11.19;50.08;102848.75;5072883;27;50491;-64
2022/02/07 13:22:16;;;;;;;;;4.50;2.50;;;;;11.28;49.58;102838.72;5070686;27;50070;-65
2022/02/07 13:24:42;;;;;;;;;2.00;2.00;;;;;11.38;50.71;102840.09;5071227;28;50399;-64
2022/02/07 13:27:10;;;;;;;;;3.00;3.00;;;;;11.52;50.70;102835.53;5070751;28;50109;-64
2022/02/07 13:29:45;;;;;;;;;7.25;1.50;;;;;11.65;49.19;102832.69;5070080;28;50865;-64
2022/02/07 13:32:12;;;;;;;;;7.00;3.00;;;;;11.74;49.79;102843.66;5070904;28;49635;-64
2022/02/07 13:34:39;;;;;;;;;2.50;2.50;;;;;11.69;48.59;102832.03;5071253;28;49617;-64
2022/02/07 13:37:15;;;;;;;;;2.00;2.00;;;;;11.76;49.50;102848.16;5070738;28;49691;-64
2022/02/07 13:40:02;;;;;;;;;4.00;2.75;;;;;11.64;48.43;102841.41;5070898;28;50368;-64
2022/02/07 13:42:42;;;;;;;;;7.75;3.25;;;;;11.65;48.68;102843.19;5070863;27;49985;-66
2022/02/07 13:45:25;;;;;;;;;6.50;1.75;;;;;11.66;47.87;102859.06;5071083;28;49794;-66
2022/02/07 13:47:53;;;;;;;;;3.00;3.00;;;;;11.64;48.56;102857.19;5052692;28;49707;-66
2022/02/07 13:50:20;;;;;;;;;3.50;1.00;;;;;11.64;47.57;102859.81;5070789;28;50996;-71
2022/02/07 13:52:47;;;;;;;;;1.75;1.75;;;;;11.69;48.41;102866.22;5070729;27;49813;-67
2022/02/07 13:55:28;;;;;;;;;2.25;2.25;;;;;11.66;47.31;102845.91;5070933;28;49925;-69
2022/02/07 13:58:03;;;;;;;;;3.25;2.00;;;;;11.66;47.58;102832.75;5070942;28;49702;-67
2022/02/07 14:00:33;;;;;;;;;11.00;10.50;;;;;11.69;47.96;102846.09;5070459;28;50490;-71
2022/02/07 14:03:26;;;;;;;;;8.75;8.50;;;;;11.81;47.72;102855.44;5070748;28;49817;-71
2022/02/07 14:05:54;;;;;;;;;0.50;0.50;;;;;11.78;46.10;102853.53;5070814;28;49912;-68
2022/02/07 14:08:40;;;;;;;;;1.25;0.00;;;;;11.41;46.36;102779.78;5070668;28;49879;-67
2022/02/07 14:11:10;;;;;;;;;0.25;0.25;;;;;11.83;46.71;102849.41;5070552;28;49626;-68
2022/02/07 14:13:37;;;;;;;;;2.75;2.50;;;;;11.85;44.79;102847.75;5070094;27;49685;-67
2022/02/07 14:16:04;;;;;;;;;1.50;1.25;;;;;11.38;44.96;102780.50;5070400;28;49922;-69
2022/02/07 14:18:31;;;;;;;;;2.25;1.75;;;;;11.72;44.39;102851.47;5070436;28;49768;-67
2022/02/07 14:20:56;;;;;;;;;2.75;1.50;;;;;11.65;45.73;102854.63;5070452;28;49810;-67
2022/02/07 14:23:22;;;;;;;;;2.75;1.50;;;;;11.37;44.90;102817.25;5070584;27;49719;-67
2022/02/07 14:25:53;;;;;;;;;1.00;1.00;;;;;11.66;45.92;102856.44;5052133;28;49707;-68
2022/02/07 14:28:18;;;;;;;;;3.00;3.00;;;;;11.74;45.88;102864.72;5052191;28;49751;-68
2022/02/07 14:30:44;;;;;;;;;2.25;1.50;;;;;11.57;46.12;102832.28;5070036;28;50831;-68
2022/02/07 14:33:10;;;;;;;;;4.75;1.75;;;;;11.54;45.92;102834.78;5070263;28;49604;-69
2022/02/07 14:35:35;;;;;;;;;3.25;2.50;;;;;11.66;45.78;102851.16;5070119;28;49862;-68
2022/02/07 14:38:05;;;;;;;;;6.00;2.00;;;;;11.75;45.83;102869.13;5070193;28;49745;-67
2022/02/07 14:40:32;;;;;;;;;2.25;2.00;;;;;11.59;46.08;102846.44;5069506;28;49905;-67
2022/02/07 14:43:00;;;;;;;;;2.75;2.00;;;;;11.72;46.38;102871.63;5068771;28;49963;-69
2022/02/07 14:45:31;;;;;;;;;6.00;3.00;;;;;11.51;46.62;102845.16;5069884;28;49903;-68
2022/02/07 14:48:01;;;;;;;;;1.75;1.75;;;;;11.36;46.52;102829.50;5070063;28;49923;-69
2022/02/07 14:50:27;;;;;;;;;3.00;3.00;;;;;11.39;46.74;102845.47;5073473;28;50518;-67
2022/02/07 14:52:54;;;;;;;;;3.50;3.00;;;;;11.40;46.50;102857.78;5073319;27;49794;-67
2022/02/07 14:55:21;;;;;;;;;2.25;2.00;;;;;10.99;46.78;102799.53;5055416;28;50058;-68
2022/02/07 14:57:47;;;;;;;;;1.75;1.25;;;;;11.27;47.39;102862.31;5072159;28;49848;-67
2022/02/07 15:00:19;;;;;;;;;1.25;1.25;;;;;11.24;47.06;102877.94;5071407;28;50463;-67
2022/02/07 15:02:45;;;;;;;;;2.50;2.50;;;;;11.20;47.17;102869.00;5071960;28;49908;-68
2022/02/07 15:05:11;;;;;;;;;2.75;2.75;;;;;11.15;47.44;102865.22;5071442;28;49954;-68
2022/02/07 15:07:36;;;;;;;;;5.00;2.25;;;;;11.11;47.33;102871.16;5071618;27;49829;-67
2022/02/07 15:10:04;;;;;;;;;9.00;7.00;;;;;11.08;47.94;102870.97;5071256;28;49616;-67
2022/02/07 15:12:30;;;;;;;;;3.50;3.00;;;;;11.03;47.65;102865.50;5072499;28;49786;-66
2022/02/07 15:14:56;;;;;;;;;3.75;3.75;;;;;11.00;47.70;102873.22;5073693;28;50102;-67
2022/02/07 15:17:28;;;;;;;;;4.00;2.75;;;;;10.95;47.22;102868.53;5073499;28;49746;-67
2022/02/07 15:19:53;;;;;;;;;6.25;4.00;;;;;10.89;47.62;102870.00;5073114;28;50455;-68
2022/02/07 15:22:18;;;;;;;;;2.50;1.00;;;;;10.83;47.50;102867.06;5073606;28;49748;-68
2022/02/07 15:24:44;;;;;;;;;2.75;2.75;;;;;10.40;47.79;102810.41;5073149;28;49563;-68
2022/02/07 15:27:09;;;;;;;;;2.75;2.75;;;;;10.54;48.13;102846.22;5073142;28;49724;-65
2022/02/07 15:29:36;;;;;;;;;7.75;3.75;;;;;10.73;48.88;102877.00;5072850;28;49797;-66
2022/02/07 15:34:45;;;;;;;;;2.00;2.00;;;;;9.03;48.37;102578.16;5072905;27;50284;-69
2022/02/07 15:37:10;;;;;;;;;6.25;4.75;;;;;9.75;48.62;102740.38;5073245;28;49691;-69
2022/02/07 15:39:36;;;;;;;;;6.50;4.25;;;;;10.65;48.93;102865.19;5054445;28;51299;-72
2022/02/07 15:42:03;;;;;;;;;5.25;2.25;;;;;10.31;48.83;102811.72;5073297;27;49871;-68
2022/02/07 15:44:29;;;;;;;;;4.00;4.00;;;;;10.35;48.72;102823.31;5072974;28;49805;-67
2022/02/07 15:46:54;;;;;;;;;6.50;4.25;;;;;10.48;49.17;102844.16;5072543;27;49845;-67
2022/02/07 15:49:20;;;;;;;;;6.75;3.00;;;;;9.92;49.20;102738.66;5072470;27;50953;-67
2022/02/07 15:51:46;;;;;;;;;5.75;3.00;;;;;10.36;49.17;102830.38;5054491;28;49779;-67
2022/02/07 15:54:11;;;;;;;;;3.25;1.75;;;;;10.20;49.91;102809.31;5071274;27;49894;-67
2022/02/07 15:56:37;;;;;;;;;7.00;5.50;;;;;10.43;49.75;102832.50;5072829;28;49807;-67
2022/02/07 15:59:03;;;;;;;;;4.50;3.50;;;;;10.54;49.47;102851.47;5054027;28;51317;-65
2022/02/07 16:01:28;;;;;;;;;2.75;2.75;;;;;10.34;50.38;102836.38;5072234;27;49704;-65
2022/02/07 16:03:54;;;;;;;;;4.25;2.75;;;;;10.07;49.94;102796.34;5053911;27;49845;-66
2022/02/07 16:06:20;;;;;;;;;2.50;2.25;;;;;10.41;50.11;102855.13;5054489;28;49622;-65
2022/02/07 16:08:46;;;;;;;;;7.00;3.00;;;;;9.64;50.09;102721.38;5047232;28;49752;-65
2022/02/07 16:11:14;;;;;;;;;2.00;2.00;;;;;10.26;48.71;102833.31;5072663;28;49802;-65
2022/02/07 16:13:45;;;;;;;;;4.00;1.50;;;;;10.38;48.92;102856.69;5072379;28;50004;-69
2022/02/07 16:16:11;;;;;;;;;1.75;1.75;;;;;10.19;49.85;102815.38;5065877;28;50026;-67
2022/02/07 16:18:39;;;;;;;;;5.75;3.50;;;;;10.08;50.19;102812.16;5072388;28;49959;-63
2022/02/07 16:21:04;;;;;;;;;4.00;3.75;;;;;10.17;49.89;102825.78;5072325;28;49719;-66
2022/02/07 16:23:30;;;;;;;;;3.00;3.00;;;;;10.01;49.26;102810.91;5072146;28;49712;-66
2022/02/07 16:25:55;;;;;;;;;1.50;1.50;;;;;9.79;49.64;102768.56;5053914;28;49760;-67
2022/02/07 16:28:22;;;;;;;;;2.00;2.00;;;;;8.64;49.68;102592.53;5053524;28;52183;-69
2022/02/07 16:30:48;;;;;;;;;5.00;2.25;;;;;9.57;49.43;102771.72;5071841;27;49811;-75
2022/02/07 16:33:15;;;;;;;;;1.00;1.00;;;;;9.27;49.80;102693.94;5072110;28;49816;-65
2022/02/07 16:35:41;;;;;;;;;3.25;3.25;;;;;10.15;49.84;102848.44;5072178;28;49814;-68
2022/02/07 16:38:08;;;;;;;;;4.00;4.00;;;;;10.13;49.68;102855.28;5071893;28;49664;-67
2022/02/07 16:40:35;;;;;;;;;3.00;3.00;;;;;10.11;50.62;102850.78;5071743;28;49756;-67
2022/02/07 16:43:00;;;;;;;;;4.00;3.00;;;;;10.04;50.39;102853.09;5072309;28;49976;-64
2022/02/07 16:45:38;;;;;;;;;8.25;3.50;;;;;10.00;50.84;102858.06;5071755;27;50521;-68
2022/02/07 16:48:05;;;;;;;;;4.00;4.00;;;;;9.56;50.44;102788.25;5071986;28;51073;-67
2022/02/07 16:50:30;;;;;;;;;6.50;5.00;;;;;9.86;51.13;102846.81;5071873;28;49724;-64
2022/02/07 16:52:56;;;;;;;;;6.00;4.00;;;;;9.82;51.20;102842.19;5072381;28;50052;-68
2022/02/07 16:55:22;;;;;;;;;6.25;4.25;;;;;9.80;51.64;102835.94;5071946;28;49683;-70
2022/02/07 16:57:48;;;;;;;;;7.00;4.50;;;;;9.86;51.50;102861.63;5071439;28;49751;-72
2022/02/07 17:00:14;;;;;;;;;6.75;6.75;;;;;9.82;51.61;102867.50;5071484;28;49901;-65
2022/02/07 17:02:40;;;;;;;;;5.25;4.50;;;;;9.78;51.42;102866.44;5071526;28;49600;-67
2022/02/07 17:05:05;;;;;;;;;6.00;6.00;;;;;9.67;52.57;102857.97;5074070;27;49754;-67
2022/02/07 17:07:31;;;;;;;;;6.00;4.50;;;;;9.72;52.73;102876.56;5058773;28;52172;-65
2022/02/07 17:09:56;;;;;;;;;7.00;4.00;;;;;9.43;52.78;102840.78;5071369;28;49824;-72
2022/02/07 17:12:22;;;;;;;;;6.00;5.00;;;;;9.58;53.28;102872.25;5070606;28;49927;-68
2022/02/07 17:14:48;;;;;;;;;5.50;5.50;;;;;9.55;53.03;102878.19;5071615;27;49695;-69
2022/02/07 17:17:13;;;;;;;;;5.00;3.25;;;;;9.56;53.56;102876.50;5071067;28;50519;-64
2022/02/07 17:19:38;;;;;;;;;6.75;6.00;;;;;9.50;53.61;102890.16;5071453;28;49990;-67
2022/02/07 17:22:04;;;;;;;;;13.25;9.00;;;;;9.36;53.85;102862.19;5071472;28;50017;-65
2022/02/07 17:24:30;;;;;;;;;6.25;6.25;;;;;9.46;54.59;102893.41;5071722;28;49783;-66
2022/02/07 17:26:55;;;;;;;;;12.50;7.50;;;;;9.43;55.13;102896.75;5048949;28;50898;-68
2022/02/07 17:29:20;;;;;;;;;10.50;7.00;;;;;9.37;54.75;102899.00;5050967;28;49716;-71
2022/02/07 17:31:46;;;;;;;;;11.00;7.50;;;;;9.17;54.83;102879.47;5051230;28;49956;-66
2022/02/07 17:34:11;;;;;;;;;10.25;7.50;;;;;9.34;55.03;102911.00;5051166;28;49981;-66
2022/02/07 17:36:37;;;;;;;;;12.50;8.00;;;;;9.29;54.91;102908.13;5050716;28;50365;-68
2022/02/07 17:39:04;;;;;;;;;5.50;5.50;;;;;9.26;55.93;102904.41;5050666;28;49704;-67
2022/02/07 17:41:31;;;;;;;;;4.25;3.25;;;;;9.05;55.34;102880.44;5049307;28;49803;-67
2022/02/07 17:43:58;;;;;;;;;8.00;8.00;;;;;9.14;55.55;102900.22;5049576;28;49855;-68
2022/02/07 17:46:28;;;;;;;;;6.25;6.25;;;;;8.82;56.22;102839.75;5048937;28;51162;-68
2022/02/07 17:48:57;;;;;;;;;9.00;6.75;;;;;9.14;56.35;102902.84;5050607;28;49838;-68
2022/02/07 17:51:25;;;;;;;;;11.00;8.75;;;;;8.19;56.41;102757.31;5049212;28;50388;-67
2022/02/07 17:53:50;;;;;;;;;13.25;8.00;;;;;8.13;56.72;102756.94;5049257;28;49883;-67
2022/02/07 17:56:16;;;;;;;;;8.50;8.00;;;;;8.56;56.56;102822.44;5048869;28;51343;-68
2022/02/07 17:58:42;;;;;;;;;7.25;5.00;;;;;8.81;56.70;102886.00;5049443;27;49814;-68
2022/02/07 18:01:08;;;;;;;;;7.75;6.75;;;;;8.07;56.78;102779.19;5049336;28;50235;-68
2022/02/07 18:03:33;;;;;;;;;10.00;7.00;;;;;8.71;56.65;102882.72;5050777;28;49872;-68
2022/02/07 18:06:01;;;;;;;;;25.75;21.00;;;;;8.46;56.92;102820.06;5048713;28;52696;-67
2022/02/07 18:08:26;;;;;;;;;14.50;13.50;;;;;8.80;57.46;102896.38;5048554;28;49882;-68
2022/02/07 18:10:52;;;;;;;;;13.00;12.00;;;;;7.94;57.63;102775.81;5048765;28;49890;-67
2022/02/07 18:13:19;;;;;;;;;8.25;7.00;;;;;7.85;57.05;102780.47;5050439;28;49921;-68
2022/02/07 18:15:45;;;;;;;;;12.75;9.50;;;;;7.80;57.45;102737.41;5048212;28;52019;-68
2022/02/07 18:18:11;;;;;;;;;11.50;8.25;;;;;7.77;57.55;102739.84;5048830;28;50227;-68
2022/02/07 18:20:40;;;;;;;;;24.00;22.25;;;;;7.66;57.56;102728.69;5050341;28;49787;-69
2022/02/07 18:23:12;;;;;;;;;19.75;19.00;;;;;8.83;58.19;102947.22;5048306;28;50006;-68
2022/02/07 18:25:39;;;;;;;;;16.25;13.25;;;;;8.79;57.86;102933.84;5049849;28;49863;-67
2022/02/07 18:28:08;;;;;;;;;12.25;10.25;;;;;7.73;57.91;102777.97;5065272;27;49693;-67
2022/02/07 18:30:36;;;;;;;;;15.25;13.25;;;;;8.53;57.66;102888.59;5069841;28;49931;-66
2022/02/07 18:33:01;;;;;;;;;12.75;11.00;;;;;8.38;58.57;102861.44;5070406;28;49729;-64
2022/02/07 18:35:28;;;;;;;;;29.50;28.25;;;;;7.79;57.70;102761.75;5070003;28;50623;-67
2022/02/07 18:37:55;;;;;;;;;28.50;23.50;;;;;7.40;57.79;102700.88;5070259;28;50067;-66
2022/02/07 18:40:30;;;;;;;;;13.00;11.00;;;;;8.26;58.19;102878.97;5070270;28;50064;-66
2022/02/07 18:43:00;;;;;;;;;11.50;8.50;;;;;8.58;58.15;102915.06;5070574;27;50007;-66
2022/02/07 18:45:28;;;;;;;;;14.00;12.50;;;;;7.33;58.53;102708.22;5069575;28;49782;-65
2022/02/07 18:47:56;;;;;;;;;14.25;10.00;;;;;8.25;58.36;102871.94;5069834;28;49762;-65
2022/02/07 18:50:24;;;;;;;;;11.75;10.50;;;;;7.54;58.57;102754.06;5070103;27;50011;-65
2022/02/07 18:52:51;;;;;;;;;16.50;9.00;;;;;8.00;58.24;102862.50;5052033;28;50272;-64
2022/02/07 18:55:17;;;;;;;;;12.75;9.50;;;;;7.44;59.15;102762.09;5069861;28;49822;-66
2022/02/07 18:57:47;;;;;;;;;17.00;16.25;;;;;7.82;59.47;102827.34;5070164;28;49557;-63
2022/02/07 19:00:17;;;;;;;;;12.50;10.00;;;;;8.16;59.34;102879.19;5069726;28;50052;-63
2022/02/07 19:02:54;;;;;;;;;12.25;10.50;;;;;8.34;59.19;102922.25;5069844;28;49612;-64